Time;durP1;ratioP1;P1;durP2;ratioP2;P2;SDS_P1;SDS_P2;PMS_P1;PMS_P2;Temp;Humidity;BMP_temperature;BMP_pressure;BME280_temperature;BME280_humidity;BME280_pressure;Samples;Min_cycle;Max_cycle;Signal;HPM_P1;HPM_P2
2023/05/17 00:00:19;;;;;;;4.82;2.75;;;;;;;6.63;100.00;101375.47;4913995;28;20058;-86
2023/05/17 00:02:46;;;;;;;4.90;2.75;;;;;;;6.72;100.00;101374.75;4939802;28;20039;-84
2023/05/17 00:05:12;;;;;;;5.40;2.28;;;;;;;6.81;100.00;101374.06;4919904;28;20071;-81
2023/05/17 00:07:39;;;;;;;5.97;2.80;;;;;;;6.95;100.00;101369.97;4933910;29;20035;-81
2023/05/17 00:10:07;;;;;;;10.80;3.42;;;;;;;7.07;100.00;101371.91;4930849;28;20086;-91
2023/05/17 00:12:33;;;;;;;3.75;2.25;;;;;;;7.22;100.00;101369.56;4930503;29;20070;-81
2023/05/17 00:15:16;;;;;;;4.32;2.10;;;;;;;7.36;100.00;101364.56;4934825;28;20047;-84
2023/05/17 00:17:43;;;;;;;6.13;2.83;;;;;;;7.48;100.00;101370.81;4937992;29;20055;-83
2023/05/17 00:20:10;;;;;;;4.22;2.53;;;;;;;7.55;100.00;101359.66;4935677;28;20082;-78
2023/05/17 00:22:39;;;;;;;4.22;1.73;;;;;;;7.56;100.00;101359.69;4937270;28;20043;-80
2023/05/17 00:25:07;;;;;;;5.50;1.92;;;;;;;7.52;100.00;101360.50;4939368;29;20054;-80
2023/05/17 00:27:34;;;;;;;7.85;1.55;;;;;;;7.40;100.00;101357.69;4950210;28;20034;-80
2023/05/17 00:30:04;;;;;;;1.73;1.63;;;;;;;7.28;100.00;101360.97;4960343;28;20072;-78
2023/05/17 00:32:31;;;;;;;4.80;2.42;;;;;;;7.10;100.00;101366.75;4932594;28;20055;-82
2023/05/17 00:34:57;;;;;;;7.80;2.55;;;;;;;6.97;100.00;101370.00;4939254;29;20497;-80
2023/05/17 00:37:24;;;;;;;6.80;3.47;;;;;;;6.90;100.00;101361.22;4938157;29;20043;-79
2023/05/17 00:39:51;;;;;;;4.43;1.90;;;;;;;6.81;100.00;101367.13;4924647;29;21055;-86
2023/05/17 00:42:18;;;;;;;9.45;2.25;;;;;;;6.75;100.00;101378.31;4931092;28;20075;-79
2023/05/17 00:44:44;;;;;;;11.25;2.85;;;;;;;6.68;100.00;101375.56;4932138;29;20043;-80
2023/05/17 00:47:11;;;;;;;4.22;1.98;;;;;;;6.62;100.00;101377.19;4930978;29;20047;-82
2023/05/17 00:49:37;;;;;;;5.70;1.88;;;;;;;6.56;100.00;101384.88;4936084;28;20043;-83
2023/05/17 00:52:04;;;;;;;4.00;2.25;;;;;;;6.53;100.00;101374.44;4926974;29;20044;-80
2023/05/17 00:54:31;;;;;;;7.18;2.83;;;;;;;6.47;100.00;101374.31;4926800;29;20067;-83
2023/05/17 00:56:58;;;;;;;6.32;2.53;;;;;;;6.42;100.00;101375.94;4930176;29;20040;-81
2023/05/17 00:59:26;;;;;;;10.18;3.20;;;;;;;6.38;100.00;101374.13;4939121;28;20055;-80
2023/05/17 01:01:52;;;;;;;6.15;1.98;;;;;;;6.32;100.00;101374.84;4930478;29;20071;-91
2023/05/17 01:04:19;;;;;;;10.23;2.40;;;;;;;6.31;100.00;101375.72;4918993;29;20134;-81
2023/05/17 01:06:45;;;;;;;12.20;2.70;;;;;;;6.29;100.00;101387.81;4934908;28;20042;-81
2023/05/17 01:09:12;;;;;;;8.18;2.38;;;;;;;6.26;100.00;101383.41;4931041;28;20063;-83
2023/05/17 01:12:33;;;;;;;7.15;2.83;;;;;;;6.22;100.00;101388.50;4928676;29;20053;-81
2023/05/17 01:15:15;;;;;;;8.32;2.75;;;;;;;6.19;100.00;101393.66;4947952;28;20039;-81
2023/05/17 01:18:14;;;;;;;9.43;2.30;;;;;;;6.20;100.00;101400.63;4931448;28;20628;-81
2023/05/17 01:20:44;;;;;;;6.47;2.80;;;;;;;6.23;100.00;101388.56;4930087;29;20398;-80
2023/05/17 01:23:34;;;;;;;5.85;2.38;;;;;;;6.23;100.00;101391.16;4931406;28;20035;-81
2023/05/17 01:26:24;;;;;;;3.80;2.28;;;;;;;6.23;100.00;101403.28;4947063;28;20431;-81
2023/05/17 01:28:53;;;;;;;8.85;2.42;;;;;;;6.17;100.00;101398.84;4925727;29;20150;-83
2023/05/17 01:31:20;;;;;;;13.07;2.42;;;;;;;6.18;100.00;101395.41;4925359;29;20052;-81
2023/05/17 01:33:47;;;;;;;5.32;2.28;;;;;;;6.16;100.00;101394.47;4913788;29;20494;-80
2023/05/17 01:36:13;;;;;;;5.68;2.35;;;;;;;6.13;100.00;101392.69;4910830;29;20566;-84
2023/05/17 01:38:40;;;;;;;3.80;2.47;;;;;;;6.11;100.00;101399.59;4895868;29;20044;-84
2023/05/17 01:41:37;;;;;;;7.88;2.95;;;;;;;6.09;100.00;101408.19;4927272;29;20047;-86
2023/05/17 01:44:29;;;;;;;5.93;2.75;;;;;;;6.19;100.00;101398.84;4905244;29;20048;-80
2023/05/17 01:47:20;;;;;;;8.90;2.53;;;;;;;6.33;100.00;101400.00;4906980;29;20055;-88
2023/05/17 01:49:52;;;;;;;5.47;2.80;;;;;;;6.39;100.00;101400.16;4913290;29;20115;-82
2023/05/17 01:52:30;;;;;;;6.65;2.15;;;;;;;6.40;100.00;101401.91;4903459;29;20044;-80
2023/05/17 01:55:26;;;;;;;10.63;2.40;;;;;;;6.45;100.00;101410.69;4891387;29;20047;-81
2023/05/17 01:57:55;;;;;;;5.88;2.80;;;;;;;6.49;100.00;101414.19;4899422;29;20106;-82
2023/05/17 02:00:25;;;;;;;5.15;2.38;;;;;;;6.57;100.00;101416.97;4911805;29;20044;-90
2023/05/17 02:02:51;;;;;;;5.32;2.40;;;;;;;6.69;100.00;101416.31;4916396;29;20040;-80
2023/05/17 02:05:18;;;;;;;8.13;2.55;;;;;;;6.78;100.00;101413.91;4912312;29;20048;-81
2023/05/17 02:07:44;;;;;;;6.93;2.55;;;;;;;6.88;100.00;101414.94;4929123;29;20047;-80
2023/05/17 02:10:13;;;;;;;8.93;2.90;;;;;;;6.98;100.00;101416.00;4910573;29;20035;-85
2023/05/17 02:12:40;;;;;;;5.88;3.17;;;;;;;7.04;100.00;101417.00;4910664;29;20063;-81
2023/05/17 02:15:10;;;;;;;8.10;3.03;;;;;;;7.11;100.00;101415.38;4898409;29;20039;-82
2023/05/17 02:17:36;;;;;;;7.57;2.92;;;;;;;7.19;100.00;101415.50;4913596;29;20075;-80
2023/05/17 02:20:03;;;;;;;8.93;2.70;;;;;;;7.26;100.00;101419.94;4911981;29;20039;-84
2023/05/17 02:22:29;;;;;;;9.07;2.85;;;;;;;7.32;100.00;101421.81;4914010;29;20050;-81
2023/05/17 02:24:56;;;;;;;8.52;3.30;;;;;;;7.40;100.00;101428.88;4917552;29;20043;-89
2023/05/17 02:27:22;;;;;;;9.07;3.33;;;;;;;7.44;100.00;101427.22;4931016;29;20434;-83
2023/05/17 02:29:49;;;;;;;6.75;3.15;;;;;;;7.47;100.00;101418.56;4908977;29;20148;-81
2023/05/17 02:32:16;;;;;;;7.85;3.38;;;;;;;7.48;100.00;101418.59;4925772;29;20039;-81
2023/05/17 02:34:42;;;;;;;9.30;3.08;;;;;;;7.52;100.00;101417.81;4915934;29;20139;-80
2023/05/17 02:37:09;;;;;;;8.20;3.40;;;;;;;7.54;100.00;101413.47;4930770;29;20040;-81
2023/05/17 02:39:35;;;;;;;9.32;3.42;;;;;;;7.54;100.00;101420.44;4926510;29;20071;-82
2023/05/17 02:42:02;;;;;;;8.23;3.78;;;;;;;7.52;100.00;101417.81;4926729;29;20048;-84
2023/05/17 02:44:28;;;;;;;4.15;2.50;;;;;;;7.50;100.00;101424.72;4935826;29;20161;-83
2023/05/17 02:46:55;;;;;;;5.40;3.05;;;;;;;7.44;100.00;101429.81;4929246;29;20036;-90
2023/05/17 02:49:21;;;;;;;10.95;3.80;;;;;;;7.41;100.00;101432.38;4932185;29;20051;-80
2023/05/17 02:51:47;;;;;;;15.57;3.45;;;;;;;7.38;100.00;101424.50;4913396;29;20048;-80
2023/05/17 02:54:14;;;;;;;10.80;5.18;;;;;;;7.38;100.00;101432.31;4935470;29;20118;-82
2023/05/17 02:56:40;;;;;;;7.50;3.42;;;;;;;7.36;100.00;101432.28;4927169;29;20035;-81
2023/05/17 02:59:07;;;;;;;11.02;2.65;;;;;;;7.28;100.00;101434.75;4936463;29;20050;-80
2023/05/17 03:01:33;;;;;;;4.35;3.05;;;;;;;7.16;100.00;101434.56;4927085;29;20085;-81
2023/05/17 03:04:00;;;;;;;10.73;3.17;;;;;;;7.03;100.00;101438.66;4918809;29;20102;-81
2023/05/17 03:06:26;;;;;;;12.63;4.00;;;;;;;6.84;100.00;101441.78;4911770;29;20391;-80
2023/05/17 03:08:53;;;;;;;16.88;4.47;;;;;;;6.65;100.00;101445.72;4927415;29;20303;-79
2023/05/17 03:11:19;;;;;;;7.57;3.72;;;;;;;6.48;100.00;101448.88;4916046;29;20059;-84
2023/05/17 03:13:50;;;;;;;12.43;3.83;;;;;;;6.39;100.00;101446.09;4934113;29;20043;-82
2023/05/17 03:16:17;;;;;;;9.20;3.60;;;;;;;6.27;100.00;101452.78;4908535;29;20051;-81
2023/05/17 03:18:44;;;;;;;16.10;5.75;;;;;;;6.23;100.00;101455.28;4930513;29;20039;-81
2023/05/17 03:21:10;;;;;;;7.07;3.35;;;;;;;6.13;100.00;101457.66;4930214;29;20458;-87
2023/05/17 03:23:37;;;;;;;12.63;4.47;;;;;;;6.09;100.00;101467.97;4937872;29;20048;-80
2023/05/17 03:26:03;;;;;;;6.68;4.10;;;;;;;6.05;100.00;101474.81;4932572;29;20058;-83
2023/05/17 03:28:30;;;;;;;10.00;3.83;;;;;;;6.05;100.00;101471.34;4933501;29;20059;-84
2023/05/17 03:30:56;;;;;;;14.60;5.60;;;;;;;6.02;100.00;101471.28;4932298;29;20509;-86
2023/05/17 03:33:23;;;;;;;15.00;4.60;;;;;;;5.98;100.00;101472.91;4924195;29;20039;-81
2023/05/17 03:35:49;;;;;;;15.25;6.68;;;;;;;6.02;100.00;101474.75;4917859;29;20051;-81
2023/05/17 03:38:16;;;;;;;15.40;5.38;;;;;;;6.02;100.00;101485.13;4917900;29;20047;-81
2023/05/17 03:40:42;;;;;;;13.77;4.45;;;;;;;5.99;100.00;101482.47;4919619;29;20047;-80
2023/05/17 03:43:09;;;;;;;16.77;4.20;;;;;;;6.01;100.00;101485.09;4915457;29;20394;-81
2023/05/17 03:45:35;;;;;;;6.63;3.90;;;;;;;6.03;100.00;101486.91;4930314;29;20123;-83
2023/05/17 03:48:02;;;;;;;10.95;3.85;;;;;;;6.00;100.00;101494.63;4932682;29;20065;-80
2023/05/17 03:50:30;;;;;;;11.65;3.83;;;;;;;6.02;100.00;101497.25;4923618;29;20445;-83
2023/05/17 03:52:57;;;;;;;17.25;4.32;;;;;;;6.04;100.00;101500.78;4924970;29;20045;-83
2023/05/17 03:55:23;;;;;;;9.50;3.63;;;;;;;6.08;100.00;101500.00;4945872;29;20058;-83
2023/05/17 03:57:50;;;;;;;18.48;4.45;;;;;;;6.09;100.00;101497.44;4927915;29;20039;-80
2023/05/17 04:00:20;;;;;;;11.80;3.90;;;;;;;6.10;100.00;101504.41;4946201;28;20047;-82
2023/05/17 04:02:51;;;;;;;16.10;4.38;;;;;;;6.14;100.00;101513.16;4924310;29;20047;-81
2023/05/17 04:05:18;;;;;;;17.63;4.20;;;;;;;6.12;100.00;101512.22;4929622;29;20576;-85
2023/05/17 04:07:46;;;;;;;12.15;3.72;;;;;;;6.16;100.00;101508.84;4948927;29;20051;-84
2023/05/17 04:10:12;;;;;;;13.05;3.97;;;;;;;6.19;100.00;101515.84;4913851;29;20051;-80
2023/05/17 04:12:40;;;;;;;11.20;3.30;;;;;;;6.23;100.00;101521.16;4928114;29;20047;-84
2023/05/17 04:15:07;;;;;;;13.10;3.60;;;;;;;6.31;100.00;101526.53;4946088;29;20047;-83
2023/05/17 04:17:35;;;;;;;19.77;4.45;;;;;;;6.40;100.00;101528.44;4919712;29;20471;-85
2023/05/17 04:20:01;;;;;;;13.88;2.97;;;;;;;6.48;100.00;101537.31;4931081;29;20039;-79
2023/05/17 04:22:28;;;;;;;15.38;3.30;;;;;;;6.53;100.00;101537.41;4916054;29;20203;-87
2023/05/17 04:24:54;;;;;;;11.90;3.72;;;;;;;6.52;100.00;101535.66;4944298;29;20078;-83
2023/05/17 04:27:22;;;;;;;8.13;3.17;;;;;;;6.54;100.00;101544.38;4957168;29;20477;-81
2023/05/17 04:29:48;;;;;;;12.27;3.80;;;;;;;6.57;100.00;101540.13;4913538;29;20095;-86
2023/05/17 04:32:15;;;;;;;24.17;4.53;;;;;;;6.62;100.00;101546.31;4925807;29;20047;-82
2023/05/17 04:34:42;;;;;;;14.68;4.65;;;;;;;6.66;100.00;101552.44;4916430;29;20138;-80
2023/05/17 04:37:08;;;;;;;23.20;3.22;;;;;;;6.69;100.00;101557.72;4912879;29;20044;-82
2023/05/17 04:39:35;;;;;;;14.45;3.33;;;;;;;6.74;100.00;101561.31;4894802;29;20048;-83
2023/05/17 04:42:02;;;;;;;18.10;4.40;;;;;;;6.78;100.00;101560.50;4923560;29;20126;-82
2023/05/17 04:44:28;;;;;;;9.18;2.83;;;;;;;6.82;100.00;101558.88;4918248;29;20608;-81
2023/05/17 04:46:55;;;;;;;9.75;3.63;;;;;;;6.88;100.00;101574.63;4901601;29;20075;-83
2023/05/17 04:49:23;;;;;;;12.90;3.15;;;;;;;6.91;100.00;101572.06;4913897;29;20103;-86
2023/05/17 04:51:50;;;;;;;13.43;3.97;;;;;;;6.98;100.00;101574.81;4909110;29;20079;-81
2023/05/17 04:54:17;;;;;;;13.07;3.20;;;;;;;7.01;100.00;101573.13;4919528;29;20123;-84
2023/05/17 04:56:43;;;;;;;7.57;3.03;;;;;;;7.06;100.00;101576.69;4914539;29;20052;-87
2023/05/17 04:59:10;;;;;;;9.75;3.20;;;;;;;7.09;100.00;101578.47;4914360;29;20127;-84
2023/05/17 05:01:37;;;;;;;18.67;3.70;;;;;;;7.10;100.00;101583.75;4911531;29;20044;-84
2023/05/17 05:04:05;;;;;;;21.17;4.47;;;;;;;7.12;100.00;101584.63;4916740;29;20127;-81
2023/05/17 05:06:33;;;;;;;15.50;3.33;;;;;;;7.15;100.00;101590.78;4936835;29;20086;-82
2023/05/17 05:09:03;;;;;;;21.02;5.10;;;;;;;7.17;100.00;101594.25;4927546;29;20044;-84
2023/05/17 05:11:31;;;;;;;14.80;2.90;;;;;;;7.19;100.00;101603.88;4917191;29;20447;-85
2023/05/17 05:13:57;;;;;;;11.85;2.80;;;;;;;7.22;100.00;101601.34;4917866;29;20117;-81
2023/05/17 05:16:25;;;;;;;7.90;2.28;;;;;;;7.24;100.00;101606.56;4919003;29;20044;-82
2023/05/17 05:18:51;;;;;;;21.98;4.18;;;;;;;7.27;100.00;101610.13;4927128;29;20107;-81
2023/05/17 05:21:21;;;;;;;13.32;3.55;;;;;;;7.35;100.00;101607.66;4922600;29;20047;-81
2023/05/17 05:23:47;;;;;;;25.27;2.95;;;;;;;7.41;100.00;101614.72;4897026;29;20419;-84
2023/05/17 05:26:13;;;;;;;9.23;2.53;;;;;;;7.42;100.00;101617.34;4918149;29;20050;-81
2023/05/17 05:28:40;;;;;;;14.25;3.10;;;;;;;7.43;100.00;101626.03;4923592;29;20648;-81
2023/05/17 05:31:06;;;;;;;14.10;2.83;;;;;;;7.47;100.00;101633.09;4903677;29;20072;-81
2023/05/17 05:33:33;;;;;;;10.48;3.67;;;;;;;7.52;98.87;101640.97;4894423;29;20051;-83
2023/05/17 05:35:59;;;;;;;9.88;2.78;;;;;;;7.54;96.95;101640.16;4893228;29;20394;-82
2023/05/17 05:38:26;;;;;;;17.70;2.60;;;;;;;7.58;96.76;101643.72;4920879;29;20063;-80
2023/05/17 05:40:52;;;;;;;13.48;2.30;;;;;;;7.60;96.66;101642.00;4904355;29;20043;-81
2023/05/17 05:43:19;;;;;;;14.90;2.95;;;;;;;7.61;95.11;101644.66;4928033;29;20048;-83
2023/05/17 05:45:46;;;;;;;12.30;2.53;;;;;;;7.65;93.31;101645.56;4915624;29;20150;-82
2023/05/17 05:48:15;;;;;;;15.38;3.45;;;;;;;7.64;94.09;101649.03;4895593;29;20110;-86
2023/05/17 05:50:44;;;;;;;9.35;2.40;;;;;;;7.66;93.71;101649.06;4923764;29;20507;-83
2023/05/17 05:53:11;;;;;;;11.40;2.28;;;;;;;7.69;93.50;101663.03;4920074;29;20040;-81
2023/05/17 05:55:44;;;;;;;12.68;2.65;;;;;;;7.75;93.30;101651.84;4896912;29;20078;-82
2023/05/17 05:58:10;;;;;;;13.02;2.97;;;;;;;7.84;92.70;101666.78;4902379;29;20439;-81
2023/05/17 06:00:37;;;;;;;15.48;2.70;;;;;;;7.89;92.47;101663.41;4912160;29;20925;-82
2023/05/17 06:03:04;;;;;;;12.10;2.30;;;;;;;7.92;91.63;101654.75;4914083;29;20177;-85
2023/05/17 06:05:31;;;;;;;14.10;2.63;;;;;;;7.97;90.64;101662.69;4917112;29;20090;-82
2023/05/17 06:07:57;;;;;;;12.38;2.67;;;;;;;8.00;90.59;101667.94;4905553;29;20497;-81
2023/05/17 06:10:24;;;;;;;12.07;2.25;;;;;;;8.11;90.37;101676.84;4922725;29;20068;-81
2023/05/17 06:12:50;;;;;;;15.63;2.75;;;;;;;8.15;89.93;101665.59;4918744;29;20066;-82
2023/05/17 06:15:17;;;;;;;8.13;2.58;;;;;;;8.21;88.92;101672.66;4922278;29;20055;-83
2023/05/17 06:17:43;;;;;;;10.40;2.30;;;;;;;8.28;88.48;101671.91;4912910;29;20695;-81
2023/05/17 06:20:10;;;;;;;11.45;2.60;;;;;;;8.42;88.60;101683.47;4915209;29;20054;-79
2023/05/17 06:22:37;;;;;;;6.63;2.00;;;;;;;8.60;87.96;101682.91;4913213;29;20047;-84
2023/05/17 06:25:03;;;;;;;11.32;2.40;;;;;;;8.83;86.85;101681.50;4902260;29;20511;-82
2023/05/17 06:27:32;;;;;;;12.52;2.45;;;;;;;8.96;85.48;101670.38;4910208;29;20060;-87
2023/05/17 06:29:59;;;;;;;6.88;1.88;;;;;;;9.20;84.33;101687.25;4912092;29;20090;-81
2023/05/17 06:32:25;;;;;;;7.35;2.30;;;;;;;9.43;83.54;101687.53;4910085;29;20055;-85
2023/05/17 06:34:51;;;;;;;16.75;2.65;;;;;;;9.46;82.08;101687.56;4909552;29;20503;-83
2023/05/17 06:37:18;;;;;;;10.48;2.13;;;;;;;9.42;82.61;101701.47;4913675;29;20395;-82
2023/05/17 06:39:45;;;;;;;6.97;1.77;;;;;;;9.50;81.33;101699.81;4918442;29;20570;-84
2023/05/17 06:42:11;;;;;;;9.45;1.67;;;;;;;9.58;81.30;101698.19;4916349;29;20074;-83
2023/05/17 06:44:38;;;;;;;4.63;1.83;;;;;;;9.55;80.45;101694.66;4926522;29;20044;-87
2023/05/17 06:47:05;;;;;;;12.73;1.85;;;;;;;9.60;79.81;101703.44;4931973;29;20052;-82
2023/05/17 06:49:31;;;;;;;12.77;1.70;;;;;;;9.72;76.59;101707.91;4909818;29;20479;-81
2023/05/17 06:52:02;;;;;;;7.07;1.83;;;;;;;9.81;75.02;101712.38;4909234;29;20123;-86
2023/05/17 06:54:29;;;;;;;6.43;1.40;;;;;;;9.93;74.83;101712.50;4898904;29;20139;-83
2023/05/17 06:57:02;;;;;;;13.25;2.25;;;;;;;9.93;73.04;101708.16;4904296;29;20044;-81
2023/05/17 06:59:28;;;;;;;8.77;1.60;;;;;;;10.16;70.68;101709.25;4899442;29;20039;-82
2023/05/17 07:01:55;;;;;;;6.00;2.30;;;;;;;10.48;69.96;101712.22;4908949;29;20126;-85
2023/05/17 07:04:22;;;;;;;9.20;1.20;;;;;;;10.82;67.63;101711.56;4906841;29;20126;-81
2023/05/17 07:06:48;;;;;;;5.32;2.25;;;;;;;11.21;66.00;101721.44;4925689;29;20039;-83
2023/05/17 07:09:15;;;;;;;4.00;1.40;;;;;;;11.32;65.79;101718.00;4892212;29;20052;-81
2023/05/17 07:11:41;;;;;;;3.50;1.23;;;;;;;11.27;63.08;101711.88;4917275;29;20134;-82
2023/05/17 07:14:08;;;;;;;5.53;1.30;;;;;;;11.08;62.04;101728.34;4917891;29;20050;-81
2023/05/17 07:16:34;;;;;;;8.63;2.33;;;;;;;11.06;63.22;101730.06;4891413;29;20103;-81
2023/05/17 07:19:01;;;;;;;9.57;2.22;;;;;;;11.42;61.64;101728.53;4909943;29;20043;-82
2023/05/17 07:21:28;;;;;;;7.05;1.70;;;;;;;11.58;60.59;101734.72;4913396;29;20044;-82
2023/05/17 07:23:54;;;;;;;6.13;1.55;;;;;;;11.59;60.78;101735.63;4900990;29;20059;-82
2023/05/17 07:26:21;;;;;;;5.20;1.42;;;;;;;11.68;59.67;101745.25;4910072;29;20054;-91
2023/05/17 07:28:48;;;;;;;5.07;1.80;;;;;;;11.75;60.29;101741.78;4906495;29;20142;-82
2023/05/17 07:31:15;;;;;;;8.52;1.60;;;;;;;12.03;58.94;101747.16;4934483;28;20043;-84
2023/05/17 07:33:42;;;;;;;7.75;1.63;;;;;;;12.39;58.24;101754.22;4938960;28;20043;-82
2023/05/17 07:36:09;;;;;;;7.30;1.40;;;;;;;12.69;55.73;101751.63;4937442;28;20430;-82
2023/05/17 07:38:38;;;;;;;3.95;1.20;;;;;;;12.50;54.50;101762.13;4939134;29;20047;-82
2023/05/17 07:41:08;;;;;;;4.15;1.65;;;;;;;12.74;55.50;101761.22;4935651;29;20074;-82
2023/05/17 07:43:38;;;;;;;5.88;1.05;;;;;;;13.54;52.75;101759.38;4938393;28;20113;-80
2023/05/17 07:46:05;;;;;;;5.60;1.63;;;;;;;14.23;49.07;101745.00;4932767;29;20045;-82
2023/05/17 07:48:31;;;;;;;7.18;1.73;;;;;;;14.83;47.56;101760.34;4934534;28;20054;-82
2023/05/17 07:50:58;;;;;;;4.60;1.02;;;;;;;14.73;47.26;101756.03;4919619;29;20061;-80
2023/05/17 07:53:24;;;;;;;6.60;0.93;;;;;;;14.25;47.50;101761.66;4926351;28;20517;-82
2023/05/17 07:55:51;;;;;;;9.40;1.35;;;;;;;13.77;47.45;101769.81;4930453;29;20478;-81
2023/05/17 07:58:17;;;;;;;6.80;1.33;;;;;;;13.31;48.81;101783.06;4927642;28;20040;-82
2023/05/17 08:00:44;;;;;;;6.65;1.75;;;;;;;13.37;49.30;101780.47;4932763;29;20043;-80
2023/05/17 08:03:10;;;;;;;6.15;1.23;;;;;;;13.55;48.76;101790.94;4932707;28;20058;-80
2023/05/17 08:05:37;;;;;;;3.45;1.05;;;;;;;13.54;48.66;101790.94;4933036;29;20040;-84
2023/05/17 08:08:03;;;;;;;8.35;2.25;;;;;;;13.46;48.34;101803.25;4914171;29;20043;-81
2023/05/17 08:10:30;;;;;;;4.75;1.33;;;;;;;13.08;48.64;101795.38;4936751;28;20043;-85
2023/05/17 08:12:56;;;;;;;6.03;1.77;;;;;;;12.79;49.74;101800.66;4925816;29;20043;-81
2023/05/17 08:15:23;;;;;;;5.72;1.58;;;;;;;12.58;50.64;101797.13;4920981;28;20513;-81
2023/05/17 08:17:50;;;;;;;5.88;1.40;;;;;;;12.54;50.89;101810.25;4933398;28;20035;-81
2023/05/17 08:20:16;;;;;;;8.68;2.22;;;;;;;12.58;50.83;101812.91;4924904;28;20514;-82
2023/05/17 08:22:43;;;;;;;9.88;1.90;;;;;;;12.78;50.41;101824.31;4924689;29;20434;-80
2023/05/17 08:25:10;;;;;;;5.47;2.05;;;;;;;12.83;49.89;101820.81;4942846;28;20044;-80
2023/05/17 08:27:38;;;;;;;9.27;1.42;;;;;;;13.11;49.38;101819.94;4933128;29;20035;-81
2023/05/17 08:30:06;;;;;;;5.60;1.77;;;;;;;13.81;48.61;101813.66;4900850;29;20123;-83
2023/05/17 08:32:32;;;;;;;7.75;2.13;;;;;;;15.10;45.63;101808.47;4910449;29;20130;-81
2023/05/17 08:34:59;;;;;;;8.05;2.28;;;;;;;16.00;44.39;101813.66;4916891;29;20039;-81
2023/05/17 08:37:25;;;;;;;7.35;1.98;;;;;;;15.93;43.66;101816.38;4901534;29;20138;-81
2023/05/17 08:39:52;;;;;;;6.68;1.63;;;;;;;15.33;44.03;101815.25;4924922;29;20394;-83
2023/05/17 08:42:24;;;;;;;8.35;1.67;;;;;;;14.91;44.03;101814.78;4923251;29;20143;-82
2023/05/17 08:44:51;;;;;;;6.75;1.35;;;;;;;15.00;43.99;101818.19;4903425;29;20052;-81
2023/05/17 08:47:24;;;;;;;5.88;1.67;;;;;;;14.93;43.44;101815.63;4924814;29;20058;-84
2023/05/17 08:49:59;;;;;;;11.32;2.47;;;;;;;14.78;44.36;101814.88;4928457;29;20035;-82
2023/05/17 08:52:30;;;;;;;6.18;2.17;;;;;;;14.50;44.26;101822.09;4908345;29;20047;-82
2023/05/17 08:54:56;;;;;;;10.23;2.50;;;;;;;13.93;45.80;101825.03;4942829;29;20571;-82
2023/05/17 08:57:28;;;;;;;9.45;1.77;;;;;;;13.57;46.63;101822.50;4908246;29;20521;-82
2023/05/17 08:59:55;;;;;;;5.50;1.92;;;;;;;13.17;47.28;101833.06;4922611;29;20055;-81
2023/05/17 09:02:23;;;;;;;7.90;1.77;;;;;;;12.93;48.33;101828.69;4909012;29;20075;-81
2023/05/17 09:04:54;;;;;;;8.98;1.85;;;;;;;12.62;49.25;101834.81;4924276;29;20047;-81
2023/05/17 09:07:22;;;;;;;7.93;1.55;;;;;;;12.71;49.20;101826.03;4934347;29;20043;-81
2023/05/17 09:09:52;;;;;;;11.80;2.30;;;;;;;12.83;49.19;101828.69;4931775;29;20036;-81
2023/05/17 09:12:20;;;;;;;13.30;2.22;;;;;;;13.60;47.84;101825.13;4913395;29;20036;-82
2023/05/17 09:14:48;;;;;;;10.02;2.42;;;;;;;16.01;43.23;101820.69;4924329;29;20107;-83
2023/05/17 09:17:20;;;;;;;5.53;1.85;;;;;;;17.37;38.92;101809.75;4937165;29;20073;-82
2023/05/17 09:19:49;;;;;;;9.52;2.25;;;;;;;16.65;38.16;101807.44;4937943;28;20043;-81
2023/05/17 09:22:19;;;;;;;7.32;2.30;;;;;;;15.71;40.12;101812.22;4924645;29;20051;-83
2023/05/17 09:24:45;;;;;;;8.48;2.05;;;;;;;15.00;40.79;101814.72;4910321;29;20122;-83
2023/05/17 09:27:18;;;;;;;5.82;1.50;;;;;;;14.06;40.57;101830.22;4924493;29;20043;-85
2023/05/17 09:29:46;;;;;;;7.57;1.60;;;;;;;15.22;39.57;101824.16;4914381;29;20402;-81
2023/05/17 09:32:19;;;;;;;7.85;1.65;;;;;;;17.44;35.02;101807.88;4911273;29;20114;-84
2023/05/17 09:34:49;;;;;;;9.13;1.70;;;;;;;19.66;32.59;101802.66;4911165;29;20538;-83
2023/05/17 09:37:19;;;;;;;5.35;1.75;;;;;;;21.40;29.48;101792.66;4897601;29;21262;-82
2023/05/17 09:39:47;;;;;;;6.20;1.30;;;;;;;20.80;30.41;101792.13;4885138;29;20376;-83
2023/05/17 09:42:16;;;;;;;8.90;1.60;;;;;;;20.17;31.30;101803.84;4900298;29;20054;-82
2023/05/17 09:44:52;;;;;;;7.00;1.67;;;;;;;19.55;30.72;101794.13;4916485;29;20039;-85
2023/05/17 09:47:27;;;;;;;4.20;1.73;;;;;;;18.31;32.15;101799.88;4933352;29;20043;-81
2023/05/17 09:49:57;;;;;;;3.90;1.08;;;;;;;17.63;33.22;101800.44;4912273;29;20368;-84
2023/05/17 09:52:24;;;;;;;5.75;1.13;;;;;;;18.42;32.06;101801.41;4910968;29;20046;-84
2023/05/17 09:54:56;;;;;;;9.75;1.73;;;;;;;19.04;31.51;101792.84;4908298;29;20048;-85
2023/05/17 09:57:25;;;;;;;5.90;1.58;;;;;;;18.40;31.40;101800.59;4908738;29;20067;-83
2023/05/17 09:59:56;;;;;;;8.15;2.00;;;;;;;17.66;34.22;101805.69;4917238;29;20050;-85
2023/05/17 10:02:32;;;;;;;5.90;1.75;;;;;;;16.95;36.13;101807.00;4908115;29;20135;-83
2023/05/17 10:05:04;;;;;;;5.85;1.98;;;;;;;16.25;37.34;101809.81;4913562;29;20052;-83
2023/05/17 10:07:31;;;;;;;7.55;1.88;;;;;;;15.90;38.22;101817.28;4910622;29;20076;-84
2023/05/17 10:09:58;;;;;;;7.32;1.58;;;;;;;16.75;37.11;101807.28;4899748;29;20039;-83
2023/05/17 10:12:29;;;;;;;8.98;2.47;;;;;;;17.67;35.29;101810.94;4912111;29;20040;-83
2023/05/17 10:14:58;;;;;;;6.50;1.42;;;;;;;18.32;34.36;101812.25;4901054;29;20035;-84
2023/05/17 10:17:29;;;;;;;8.65;1.85;;;;;;;18.66;33.08;101813.22;4908529;29;20555;-83
2023/05/17 10:19:56;;;;;;;8.68;1.63;;;;;;;19.13;32.76;101812.97;4914809;29;20051;-82
2023/05/17 10:22:24;;;;;;;3.30;1.40;;;;;;;19.64;31.78;101809.78;4902689;29;20463;-83
2023/05/17 10:24:51;;;;;;;7.45;1.38;;;;;;;18.88;31.47;101805.59;4895750;29;20085;-83
2023/05/17 10:27:18;;;;;;;5.47;1.30;;;;;;;17.58;32.87;101815.56;4911426;29;20043;-82
2023/05/17 10:29:45;;;;;;;6.13;1.45;;;;;;;17.28;33.82;101826.69;4927787;29;20059;-82
2023/05/17 10:32:16;;;;;;;2.90;1.20;;;;;;;17.08;33.44;101834.09;4909119;29;20044;-83
2023/05/17 10:34:48;;;;;;;4.30;1.92;;;;;;;17.65;32.67;101833.06;4912710;29;20108;-82
2023/05/17 10:37:17;;;;;;;5.88;1.27;;;;;;;19.43;29.80;101821.88;4915951;29;20126;-83
2023/05/17 10:39:45;;;;;;;2.95;1.20;;;;;;;21.34;28.50;101816.88;4918978;29;20041;-82
2023/05/17 10:42:16;;;;;;;6.85;1.40;;;;;;;21.76;26.72;101810.06;4900764;29;20056;-85
2023/05/17 10:44:43;;;;;;;3.97;1.58;;;;;;;20.48;28.21;101823.25;4915737;29;20040;-82
2023/05/17 10:47:11;;;;;;;5.68;1.58;;;;;;;19.31;30.55;101827.53;4914627;29;20484;-83
2023/05/17 10:49:40;;;;;;;5.80;1.42;;;;;;;19.31;30.80;101825.75;4926953;29;20069;-88
2023/05/17 10:52:18;;;;;;;3.85;1.35;;;;;;;21.33;27.25;101812.47;4926598;29;20093;-83
2023/05/17 10:54:49;;;;;;;6.90;1.60;;;;;;;22.35;25.95;101800.66;4903081;29;20071;-82
2023/05/17 10:57:37;;;;;;;4.07;1.35;;;;;;;23.05;25.31;101803.13;4922453;29;20051;-83
2023/05/17 11:00:06;;;;;;;7.88;2.15;;;;;;;23.56;24.86;101801.81;4914166;29;20044;-82
2023/05/17 11:02:35;;;;;;;3.88;1.30;;;;;;;23.59;24.92;101798.13;4918870;29;20032;-83
2023/05/17 11:05:01;;;;;;;5.03;1.52;;;;;;;22.82;25.90;101801.47;4913875;29;20052;-82
2023/05/17 11:07:32;;;;;;;3.53;1.15;;;;;;;24.62;24.83;101797.72;4922619;29;20055;-84
2023/05/17 11:10:04;;;;;;;6.13;1.35;;;;;;;24.27;23.96;101803.00;4940666;29;20051;-84
2023/05/17 11:12:41;;;;;;;8.83;2.33;;;;;;;22.82;25.49;101805.00;4950586;29;20043;-82
2023/05/17 11:15:09;;;;;;;8.45;1.83;;;;;;;21.42;27.46;101795.28;4916720;29;20040;-84
2023/05/17 11:17:45;;;;;;;3.85;1.10;;;;;;;21.01;28.34;101806.47;4941792;29;20118;-83
2023/05/17 11:20:15;;;;;;;5.68;1.92;;;;;;;19.97;30.13;101814.19;4928664;29;20054;-82
2023/05/17 11:22:54;;;;;;;6.63;1.80;;;;;;;18.64;31.68;101812.38;4919796;29;20043;-83
2023/05/17 11:25:21;;;;;;;3.38;1.48;;;;;;;17.48;33.19;101814.84;4917524;29;20047;-82
2023/05/17 11:27:51;;;;;;;6.15;1.45;;;;;;;17.85;33.03;101811.47;4940754;28;20043;-82
2023/05/17 11:30:27;;;;;;;8.00;1.73;;;;;;;19.16;31.20;101820.84;4952877;28;20039;-82